To NAV CANADA Home Page Login to a new session Search on AWWS site Feedback and Comments Disclaimer Vers la page française équivalente Tips FAQ What's new on the site To the Forecasts and Observations / NOTAM section To "File a Flight Plan" website Publications and other links Update of the User's profile FIC Telephone Numbers My Weather Data Folder Route Weather Data Regional Weather Data Local Weather Data To the Forecasts and Observations / NOTAM section
Request Generated 10/14/2015 at 03:59:30 UTC . Weather information available at that time is displayed.


MEDICINE HAT/AB    (show WxCam)

METAR CYXH 140300Z 21004KT 15SM SKC 06/01 A3000 RMK LAST STFD
OBS/NEXT 141300Z SLP179=
METAR CYXH 140200Z 23005KT 15SM SKC 07/01 A2999 RMK SLP176=
METAR CYXH 140100Z 25002KT 30SM SKC 14/02 A2996 RMK SLP162 DENSITY
ALT 2600FT=

TAF CYXH 132338Z 1400/1412 VRB03KT P6SM FEW080
Your time UTC time
Weather data provided by Environment Canada and NAV CANADA